Time;durP1;ratioP1;P1;durP2;ratioP2;P2;SDS_P1;SDS_P2;PMS_P1;PMS_P2;Temp;Humidity;BMP_temperature;BMP_pressure;BME280_temperature;BME280_humidity;BME280_pressure;Samples;Min_cycle;Max_cycle;Signal;HPM_P1;HPM_P2
2021/12/18 00:00:11;;;;;;;5.97;5.47;;;;;;;23.27;30.71;95314.91;5014381;28;102873;-50
2021/12/18 00:02:36;;;;;;;5.23;4.83;;;;;;;23.27;31.11;95320.25;5017936;28;102749;-50
2021/12/18 00:05:02;;;;;;;5.60;5.00;;;;;;;23.26;30.86;95321.34;5015692;28;104111;-50
2021/12/18 00:07:27;;;;;;;5.37;4.90;;;;;;;23.26;30.88;95327.47;5012860;28;102766;-51
2021/12/18 00:09:53;;;;;;;6.60;5.27;;;;;;;23.26;31.15;95318.69;5013680;28;103608;-50
2021/12/18 00:12:19;;;;;;;5.43;4.87;;;;;;;23.24;31.05;95318.97;5004369;28;102740;-50
2021/12/18 00:14:45;;;;;;;5.83;5.33;;;;;;;23.26;30.60;95316.81;5007748;28;102799;-50
2021/12/18 00:17:10;;;;;;;5.67;5.07;;;;;;;23.24;30.76;95320.84;5006844;28;103204;-51
2021/12/18 00:19:36;;;;;;;6.40;5.80;;;;;;;23.22;31.05;95313.16;5020888;28;102848;-51
2021/12/18 00:22:02;;;;;;;5.07;4.57;;;;;;;23.23;30.49;95319.28;5007912;28;102664;-50
2021/12/18 00:24:28;;;;;;;4.90;4.50;;;;;;;23.23;30.90;95311.28;5000663;28;102730;-50
2021/12/18 00:26:53;;;;;;;4.63;4.23;;;;;;;23.23;30.47;95327.28;5004082;28;103322;-50
2021/12/18 00:29:19;;;;;;;4.80;4.50;;;;;;;23.22;30.80;95323.81;5018625;28;103451;-50
2021/12/18 00:31:45;;;;;;;4.90;4.50;;;;;;;23.24;30.88;95323.53;5021991;28;103265;-50
2021/12/18 00:34:10;;;;;;;5.10;4.70;;;;;;;23.21;30.50;95324.13;5005339;28;104578;-50
2021/12/18 00:36:36;;;;;;;5.00;4.60;;;;;;;23.23;30.49;95325.41;4977953;28;105996;-50
2021/12/18 00:39:03;;;;;;;4.67;4.27;;;;;;;23.23;30.59;95332.63;5015101;28;102849;-54
2021/12/18 00:44:03;;;;;;;4.80;4.40;;;;;;;23.22;30.57;95337.16;5020077;28;102912;-50
2021/12/18 00:46:35;;;;;;;4.90;4.50;;;;;;;23.22;30.55;95339.03;5020907;28;103495;-50
2021/12/18 00:49:03;;;;;;;5.23;4.73;;;;;;;23.21;30.66;95332.91;5013671;27;103482;-50
2021/12/18 00:51:28;;;;;;;4.37;3.93;;;;;;;23.21;30.35;95329.47;5021078;28;102806;-50
2021/12/18 00:53:54;;;;;;;4.63;4.33;;;;;;;23.21;30.69;95332.13;5020552;28;102699;-50
2021/12/18 00:56:20;;;;;;;4.50;4.20;;;;;;;23.21;30.93;95319.59;5020030;28;102743;-50
2021/12/18 00:58:47;;;;;;;4.93;4.20;;;;;;;23.23;30.51;95330.72;4998587;28;102898;-51
2021/12/18 01:01:13;;;;;;;4.80;4.40;;;;;;;23.24;30.62;95323.53;5002089;28;103166;-50
2021/12/18 01:03:41;;;;;;;5.03;4.30;;;;;;;23.23;31.11;95321.94;5002249;28;103393;-51
2021/12/18 01:06:06;;;;;;;3.97;3.67;;;;;;;23.23;31.22;95327.28;5000225;28;103520;-50
2021/12/18 01:08:32;;;;;;;4.70;4.30;;;;;;;23.25;31.15;95327.75;5015046;28;103525;-50
2021/12/18 01:11:29;;;;;;;4.57;4.23;;;;;;;23.24;30.73;95334.19;5014894;28;103165;-50
2021/12/18 01:24:42;;;;;;;4.27;3.97;;;;;;;23.25;31.49;95325.09;5006049;28;102966;-50
2021/12/18 01:27:07;;;;;;;3.93;3.63;;;;;;;23.21;31.40;95316.91;5018271;28;102871;-51
2021/12/18 01:29:32;;;;;;;4.50;4.13;;;;;;;23.23;31.49;95314.75;5011884;28;102775;-50
2021/12/18 01:31:58;;;;;;;4.83;4.43;;;;;;;23.24;31.47;95318.97;4996372;28;102929;-50
2021/12/18 01:34:23;;;;;;;4.30;4.00;;;;;;;23.26;31.75;95321.34;5004215;28;104232;-50
2021/12/18 01:36:49;;;;;;;4.70;4.30;;;;;;;23.24;31.67;95324.31;5020110;28;103532;-51
2021/12/18 01:39:14;;;;;;;4.60;4.20;;;;;;;23.23;31.71;95319.28;5017847;28;103304;-50
2021/12/18 01:42:13;;;;;;;4.20;3.90;;;;;;;23.24;32.15;95318.19;5005879;28;102870;-50
2021/12/18 01:44:59;;;;;;;3.87;3.57;;;;;;;23.23;32.21;95313.94;5012045;28;103032;-50
2021/12/18 01:52:53;;;;;;;4.53;4.13;;;;;;;23.20;31.97;95306.56;5006934;28;102849;-50
2021/12/18 01:55:29;;;;;;;4.33;4.03;;;;;;;23.22;31.85;95307.84;4995278;28;104341;-50
2021/12/18 01:57:55;;;;;;;4.50;4.20;;;;;;;23.23;31.91;95312.06;4999471;28;104117;-51
2021/12/18 02:00:25;;;;;;;4.13;3.83;;;;;;;23.22;32.11;95305.16;5016874;28;103342;-50
2021/12/18 02:02:51;;;;;;;4.17;3.87;;;;;;;23.21;32.50;95298.25;5019763;28;102731;-51
2021/12/18 02:05:16;;;;;;;4.13;3.80;;;;;;;23.22;32.14;95310.50;5013515;28;103298;-50
2021/12/18 02:07:42;;;;;;;4.10;3.83;;;;;;;23.22;32.01;95302.50;5019353;28;103537;-50
2021/12/18 02:10:21;;;;;;;4.30;4.00;;;;;;;23.22;31.97;95307.84;5016198;28;102841;-51
2021/12/18 02:20:49;;;;;;;4.13;3.83;;;;;;;23.16;32.12;95300.22;5017579;28;102977;-51
2021/12/18 02:23:15;;;;;;;4.57;4.17;;;;;;;23.19;32.11;95308.44;5001786;28;102855;-50
2021/12/18 02:25:44;;;;;;;3.57;3.30;;;;;;;23.19;31.78;95308.44;5017175;28;103015;-50
2021/12/18 02:28:22;;;;;;;4.27;3.87;;;;;;;23.21;32.22;95308.13;5006705;28;102925;-50
2021/12/18 02:30:51;;;;;;;4.17;3.90;;;;;;;23.18;31.88;95301.53;5004804;28;103040;-50
2021/12/18 02:33:17;;;;;;;3.90;3.50;;;;;;;23.20;32.24;95306.56;5018634;28;102728;-51
2021/12/18 02:35:48;;;;;;;4.20;3.90;;;;;;;23.17;32.22;95302.59;5018914;28;103208;-50
2021/12/18 02:38:27;;;;;;;3.90;3.60;;;;;;;23.20;32.50;95311.88;5012441;28;104223;-50
2021/12/18 02:43:30;;;;;;;3.90;3.60;;;;;;;23.18;32.18;95295.38;4996680;28;103391;-50
2021/12/18 02:45:59;;;;;;;3.40;3.20;;;;;;;23.19;31.74;95311.09;4998655;28;102959;-51
2021/12/18 02:48:27;;;;;;;3.93;3.73;;;;;;;23.20;32.20;95314.56;4998367;28;102663;-51
2021/12/18 02:50:53;;;;;;;3.80;3.50;;;;;;;23.19;31.99;95316.44;4998787;28;102763;-51
2021/12/18 02:53:18;;;;;;;4.40;4.00;;;;;;;23.18;32.32;95317.53;5019038;28;102746;-50
2021/12/18 02:55:44;;;;;;;3.90;3.63;;;;;;;23.19;32.32;95321.75;5016147;28;103246;-50
2021/12/18 02:58:09;;;;;;;4.27;3.97;;;;;;;23.18;31.87;95317.53;5004337;28;102875;-50
2021/12/18 03:00:35;;;;;;;3.80;3.47;;;;;;;23.19;31.92;95315.66;5005418;28;102889;-50
2021/12/18 03:03:07;;;;;;;3.90;3.60;;;;;;;23.19;31.74;95320.97;4998763;28;102778;-50
2021/12/18 03:05:39;;;;;;;3.47;3.27;;;;;;;23.18;31.53;95328.19;4998325;28;103320;-50
2021/12/18 03:08:12;;;;;;;3.87;3.57;;;;;;;23.19;31.87;95328.97;5002927;28;104083;-50
2021/12/18 03:20:20;;;;;;;3.80;3.43;;;;;;;23.20;32.20;95333.22;4952903;28;103101;-49
2021/12/18 03:22:41;;;;;;;3.23;3.03;;;;;;;23.18;32.03;95325.53;4993725;28;102944;-49
2021/12/18 03:25:03;;;;;;;3.10;2.90;;;;;;;23.19;32.32;95332.44;5018815;28;102869;-49
2021/12/18 03:27:29;;;;;;;4.30;4.00;;;;;;;23.20;32.55;95327.88;5002584;28;102828;-49
2021/12/18 03:29:55;;;;;;;4.07;3.77;;;;;;;23.16;31.91;95330.34;5016143;28;102847;-49
2021/12/18 03:32:22;;;;;;;3.67;3.47;;;;;;;23.20;32.39;95335.88;5010941;28;102834;-49
2021/12/18 03:34:48;;;;;;;3.83;3.53;;;;;;;23.20;32.07;95335.88;4997621;28;103487;-48
2021/12/18 03:37:14;;;;;;;3.97;3.70;;;;;;;23.21;32.62;95343.56;5001911;28;102709;-48
2021/12/18 03:39:39;;;;;;;3.77;3.47;;;;;;;23.21;32.51;95335.56;5000637;28;103884;-49
2021/12/18 03:42:06;;;;;;;3.90;3.60;;;;;;;23.26;32.63;95345.34;5008138;28;102813;-49
2021/12/18 03:44:32;;;;;;;3.90;3.60;;;;;;;23.26;32.37;95343.47;4996007;28;102865;-49
2021/12/18 03:46:58;;;;;;;3.97;3.67;;;;;;;23.26;32.37;95343.47;5014247;28;102807;-49
2021/12/18 03:49:24;;;;;;;3.50;3.20;;;;;;;23.27;32.44;95349.56;5021800;28;103347;-49
2021/12/18 03:51:50;;;;;;;3.83;3.53;;;;;;;23.28;32.64;95348.50;5022121;28;103254;-49
2021/12/18 03:54:15;;;;;;;3.93;3.50;;;;;;;23.28;32.50;95349.28;5002553;28;103611;-49
2021/12/18 03:56:40;;;;;;;4.00;3.70;;;;;;;23.29;32.74;95350.84;5004920;28;103683;-48
2021/12/18 03:59:06;;;;;;;5.50;5.10;;;;;;;23.29;32.59;95345.53;5001513;28;104617;-49
2021/12/18 04:01:32;;;;;;;3.90;3.60;;;;;;;23.33;32.58;95338.50;5008995;28;102764;-49
2021/12/18 04:03:57;;;;;;;4.30;3.90;;;;;;;23.41;32.52;95355.69;5016637;28;103481;-48
2021/12/18 04:06:23;;;;;;;4.43;4.07;;;;;;;23.41;33.09;95355.69;5013619;28;102932;-49
2021/12/18 04:08:49;;;;;;;6.57;5.97;;;;;;;23.25;32.82;95357.88;5018622;28;103208;-51
2021/12/18 04:11:14;;;;;;;26.27;10.30;;;;;;;23.22;32.84;95360.34;5019570;28;103028;-52
2021/12/18 04:13:44;;;;;;;14.50;10.00;;;;;;;23.05;31.89;95359.09;5010273;28;102730;-52
2021/12/18 04:16:10;;;;;;;16.63;9.70;;;;;;;22.96;32.22;95354.75;5002726;28;102744;-51
2021/12/18 04:18:35;;;;;;;14.33;10.43;;;;;;;22.94;32.20;95368.38;5000926;28;103619;-52
2021/12/18 04:21:01;;;;;;;11.47;9.97;;;;;;;22.90;32.13;95366.59;5019290;28;102689;-52
2021/12/18 04:23:26;;;;;;;30.93;14.83;;;;;;;22.84;31.70;95362.44;5019394;28;102821;-52
2021/12/18 04:25:52;;;;;;;17.97;13.90;;;;;;;22.85;31.90;95359.50;5015851;28;103726;-52
2021/12/18 04:28:17;;;;;;;15.30;12.20;;;;;;;22.88;31.79;95369.56;4996071;28;103429;-51
2021/12/18 04:30:43;;;;;;;14.70;13.30;;;;;;;22.87;31.65;95367.19;5001114;28;102839;-52
2021/12/18 04:33:08;;;;;;;16.87;15.03;;;;;;;22.87;31.83;95367.19;5001991;28;103322;-52
2021/12/18 04:35:34;;;;;;;14.17;12.70;;;;;;;22.90;32.02;95371.91;5011507;28;103224;-52
2021/12/18 04:38:00;;;;;;;15.33;13.57;;;;;;;22.90;32.18;95372.72;5010282;28;102742;-52
2021/12/18 04:40:26;;;;;;;14.60;13.30;;;;;;;22.90;31.92;95366.59;5013242;28;102932;-53
2021/12/18 04:42:53;;;;;;;11.33;10.40;;;;;;;22.88;31.69;95364.22;5000826;28;103917;-52
2021/12/18 04:45:19;;;;;;;11.33;10.37;;;;;;;22.87;31.28;95367.97;5000152;28;103243;-53
2021/12/18 04:47:45;;;;;;;11.50;10.30;;;;;;;22.83;31.56;95361.63;5002786;28;103233;-52
2021/12/18 04:50:10;;;;;;;12.40;11.30;;;;;;;22.93;31.62;95381.97;4985007;28;103636;-52
2021/12/18 04:52:36;;;;;;;13.90;11.53;;;;;;;22.91;31.48;95392.16;4989279;28;103128;-51
2021/12/18 04:55:03;;;;;;;13.70;12.40;;;;;;;22.90;31.60;95388.69;5006327;28;102979;-52
2021/12/18 04:57:29;;;;;;;13.90;12.60;;;;;;;22.90;31.27;95391.38;5020851;28;103351;-52
2021/12/18 04:59:54;;;;;;;13.77;12.50;;;;;;;22.87;31.57;95393.84;5018051;28;102933;-52
2021/12/18 05:02:24;;;;;;;12.03;10.93;;;;;;;22.87;31.13;95391.16;4995248;28;102732;-52
2021/12/18 05:04:51;;;;;;;12.97;11.60;;;;;;;22.99;31.29;95402.91;5003035;28;103721;-52
2021/12/18 05:07:17;;;;;;;12.50;11.17;;;;;;;23.11;31.45;95392.53;5017649;28;102741;-52
2021/12/18 05:09:42;;;;;;;12.00;10.97;;;;;;;23.20;31.37;95397.19;5018142;28;103411;-52
2021/12/18 05:12:09;;;;;;;11.80;10.80;;;;;;;23.19;31.13;95404.41;4995597;28;102732;-52
2021/12/18 05:14:35;;;;;;;13.83;12.63;;;;;;;23.25;31.39;95405.88;4998330;28;102672;-50
2021/12/18 05:17:00;;;;;;;14.83;13.50;;;;;;;23.24;31.75;95403.50;5002979;28;102676;-51
2021/12/18 05:19:26;;;;;;;19.20;14.00;;;;;;;23.25;31.79;95402.41;5000357;28;102802;-51
2021/12/18 05:21:52;;;;;;;16.87;15.37;;;;;;;23.26;32.01;95419.97;5000494;28;102833;-51
2021/12/18 05:24:17;;;;;;;16.00;14.40;;;;;;;23.20;32.31;95419.31;4993488;28;103396;-51
2021/12/18 05:26:43;;;;;;;16.10;14.63;;;;;;;23.10;32.00;95424.81;5000464;28;102792;-50
2021/12/18 05:29:08;;;;;;;16.70;13.30;;;;;;;23.10;32.19;95427.50;5005953;28;102923;-51
2021/12/18 05:31:34;;;;;;;16.80;14.30;;;;;;;23.08;32.35;95430.44;5006810;28;102753;-53
2021/12/18 05:34:02;;;;;;;13.47;12.17;;;;;;;22.95;31.72;95428.56;4981532;28;103491;-51
2021/12/18 05:39:06;;;;;;;10.53;9.63;;;;;;;22.79;30.82;95425.34;4994044;28;102660;-51
2021/12/18 05:41:32;;;;;;;10.23;9.40;;;;;;;22.86;30.84;95432.22;4978003;28;102953;-50
2021/12/18 05:43:58;;;;;;;10.50;9.10;;;;;;;22.92;30.62;95437.16;5002585;28;103517;-50
2021/12/18 05:48:58;;;;;;;10.67;9.73;;;;;;;23.14;30.44;95446.34;5221544;22;105464;-48
2021/12/18 05:51:24;;;;;;;11.90;10.90;;;;;;;23.18;30.57;95442.81;4941246;28;103416;-48
2021/12/18 05:53:50;;;;;;;9.20;8.50;;;;;;;23.18;30.79;95447.31;4952321;28;103888;-47
2021/12/18 05:56:15;;;;;;;10.60;9.70;;;;;;;23.12;30.53;95441.31;4934607;28;103134;-47
2021/12/18 05:58:43;;;;;;;9.57;8.77;;;;;;;23.08;30.65;95449.09;4955519;28;103269;-47
2021/12/18 06:01:08;;;;;;;9.43;8.63;;;;;;;23.01;30.79;95448.72;4957366;28;102892;-48
2021/12/18 06:03:34;;;;;;;9.57;8.77;;;;;;;23.08;30.88;95451.78;4953503;28;102809;-47
2021/12/18 06:06:00;;;;;;;8.40;7.60;;;;;;;23.13;30.68;95460.75;4929348;28;103867;-48
2021/12/18 06:08:26;;;;;;;9.20;8.07;;;;;;;23.13;30.96;95458.88;4939223;28;104104;-47
2021/12/18 06:10:52;;;;;;;6.87;6.27;;;;;;;23.02;28.49;95463.63;4939871;28;103087;-47
2021/12/18 06:13:17;;;;;;;6.60;6.10;;;;;;;22.74;28.64;95464.63;4940281;28;103848;-46
2021/12/18 06:15:43;;;;;;;7.37;6.67;;;;;;;22.84;29.38;95464.44;4939447;28;104631;-47
2021/12/18 06:18:08;;;;;;;8.70;7.90;;;;;;;22.91;29.50;95475.53;4935352;28;102747;-47
2021/12/18 06:20:34;;;;;;;10.23;9.33;;;;;;;22.92;29.24;95471.00;4939579;28;104603;-47
2021/12/18 06:23:00;;;;;;;13.10;10.07;;;;;;;22.94;29.69;95479.47;4942030;28;103209;-47
2021/12/18 06:25:25;;;;;;;8.80;7.90;;;;;;;23.03;30.06;95489.19;4944846;28;104588;-47
2021/12/18 06:27:51;;;;;;;15.53;13.70;;;;;;;23.01;29.80;95486.03;4943089;28;102808;-47
2021/12/18 06:30:18;;;;;;;12.03;10.53;;;;;;;23.03;29.75;95485.72;4944400;28;102761;-47
2021/12/18 06:32:44;;;;;;;14.67;13.37;;;;;;;23.03;30.69;95489.19;4944972;28;103429;-47
2021/12/18 06:35:10;;;;;;;13.07;11.73;;;;;;;23.06;30.06;95495.78;4944209;28;103913;-47
2021/12/18 06:37:35;;;;;;;11.77;10.60;;;;;;;23.11;30.10;95493.81;4958328;28;102843;-47
2021/12/18 06:40:02;;;;;;;19.57;10.43;;;;;;;23.01;30.19;95499.34;4953260;28;102969;-47
2021/12/18 06:42:28;;;;;;;11.90;10.53;;;;;;;22.95;30.86;95494.38;4944684;28;102775;-48
2021/12/18 06:44:53;;;;;;;12.60;11.60;;;;;;;22.83;29.61;95505.50;4956870;28;103260;-48
2021/12/18 06:47:18;;;;;;;15.27;13.73;;;;;;;22.68;29.36;95501.22;4958355;28;102715;-48
2021/12/18 06:49:44;;;;;;;14.20;12.90;;;;;;;22.70;29.33;95498.25;4959530;28;103159;-48
2021/12/18 06:52:10;;;;;;;15.03;13.57;;;;;;;22.71;29.87;95499.84;4952731;28;104525;-48
2021/12/18 06:54:35;;;;;;;16.30;14.60;;;;;;;22.68;29.45;95503.09;4958642;28;103466;-48
2021/12/18 06:57:02;;;;;;;16.40;15.00;;;;;;;22.68;29.72;95508.41;4958377;28;102719;-48
2021/12/18 06:59:28;;;;;;;18.47;16.77;;;;;;;22.67;29.85;95509.47;4944061;28;102948;-48
2021/12/18 07:01:54;;;;;;;16.10;14.70;;;;;;;22.66;29.95;95506.00;4960925;28;103333;-48
2021/12/18 07:04:20;;;;;;;14.03;12.83;;;;;;;22.64;30.07;95518.03;4957631;28;102837;-48
2021/12/18 07:06:45;;;;;;;20.03;18.23;;;;;;;22.64;29.83;95521.50;4961866;28;103093;-49
2021/12/18 07:09:11;;;;;;;20.10;18.30;;;;;;;22.67;29.63;95528.91;4962563;28;102660;-49
2021/12/18 07:11:37;;;;;;;24.00;21.80;;;;;;;22.65;29.81;95525.75;4962321;28;103227;-49
2021/12/18 07:14:02;;;;;;;27.30;25.00;;;;;;;22.65;29.85;95538.28;4956385;28;102757;-49
2021/12/18 07:16:28;;;;;;;24.73;22.60;;;;;;;22.65;29.98;95538.28;4944762;28;102752;-49
2021/12/18 07:18:53;;;;;;;25.87;23.57;;;;;;;22.64;30.06;95536.69;4963043;28;102766;-49
2021/12/18 07:21:19;;;;;;;25.27;23.17;;;;;;;22.62;29.65;95528.19;4962117;28;102657;-49
2021/12/18 07:23:44;;;;;;;25.40;23.30;;;;;;;22.63;29.84;95529.78;4962460;28;104743;-49
2021/12/18 07:26:12;;;;;;;23.03;21.03;;;;;;;22.67;29.75;95536.09;4956240;28;102723;-48
2021/12/18 07:28:38;;;;;;;19.47;17.77;;;;;;;22.78;29.44;95534.88;4962714;28;103323;-48
2021/12/18 07:31:03;;;;;;;19.07;17.37;;;;;;;22.86;29.34;95542.25;4954138;28;102949;-49
2021/12/18 07:33:29;;;;;;;19.50;17.77;;;;;;;22.89;28.93;95540.88;4946168;28;103337;-49
2021/12/18 07:35:54;;;;;;;20.77;18.87;;;;;;;22.88;29.54;95548.06;4942995;28;103510;-49
2021/12/18 07:38:20;;;;;;;22.03;20.13;;;;;;;22.81;29.81;95547.59;4943466;28;102792;-50
2021/12/18 07:40:45;;;;;;;22.17;20.07;;;;;;;22.75;30.15;95548.78;4942820;28;102772;-49
2021/12/18 07:43:11;;;;;;;18.50;16.37;;;;;;;22.75;29.97;95551.44;4942750;28;103141;-49
2021/12/18 07:45:37;;;;;;;16.97;15.10;;;;;;;22.70;29.57;95548.88;4942072;28;103649;-49
2021/12/18 07:48:03;;;;;;;14.60;13.20;;;;;;;22.64;29.40;95561.44;4938542;28;104679;-50
2021/12/18 07:50:30;;;;;;;15.43;13.67;;;;;;;22.67;29.81;95562.75;4925850;28;103767;-49
2021/12/18 07:52:55;;;;;;;14.30;12.90;;;;;;;22.66;29.80;95569.94;4928202;28;103630;-49
2021/12/18 07:55:21;;;;;;;12.83;11.73;;;;;;;22.70;29.60;95580.81;4952413;28;103315;-49
2021/12/18 07:57:47;;;;;;;13.77;12.37;;;;;;;22.68;29.39;95583.00;4940924;28;103652;-49
2021/12/18 08:00:14;;;;;;;13.23;12.03;;;;;;;22.69;29.12;95585.38;4939667;28;104086;-49
2021/12/18 08:02:40;;;;;;;12.43;11.23;;;;;;;22.68;29.48;95578.47;4937781;28;103532;-49
2021/12/18 08:05:07;;;;;;;12.33;11.17;;;;;;;22.68;29.47;95583.00;4943779;28;102847;-49
2021/12/18 08:07:33;;;;;;;11.87;10.87;;;;;;;22.69;29.33;95595.22;4942382;28;103331;-50
2021/12/18 08:09:59;;;;;;;11.90;10.90;;;;;;;22.65;29.01;95599.53;4944611;28;102936;-49
2021/12/18 08:12:25;;;;;;;11.40;10.30;;;;;;;22.62;28.71;95594.78;4934879;28;103434;-49
2021/12/18 08:14:50;;;;;;;11.43;10.43;;;;;;;22.66;28.81;95590.47;4945684;28;103294;-49
2021/12/18 08:17:16;;;;;;;12.70;11.63;;;;;;;22.68;28.73;95588.31;4953595;28;103006;-49
2021/12/18 08:19:42;;;;;;;14.60;13.10;;;;;;;22.67;29.18;95597.38;4953437;28;102801;-49
2021/12/18 08:22:07;;;;;;;16.27;14.80;;;;;;;22.69;29.60;95600.56;4958374;28;103456;-49
2021/12/18 08:24:33;;;;;;;21.57;19.57;;;;;;;22.65;29.48;95592.31;4958412;28;102836;-49
2021/12/18 08:26:58;;;;;;;16.90;15.40;;;;;;;22.66;29.09;95598.44;4960087;28;102822;-49
2021/12/18 08:29:24;;;;;;;18.80;17.07;;;;;;;22.66;29.40;95595.78;4961171;28;103749;-49
2021/12/18 08:31:51;;;;;;;19.43;17.63;;;;;;;22.69;29.40;95603.22;4954893;28;103481;-49
2021/12/18 08:34:21;;;;;;;19.30;17.60;;;;;;;22.62;29.64;95584.13;4960843;28;102753;-49
2021/12/18 08:36:47;;;;;;;18.03;16.37;;;;;;;22.72;29.42;95598.09;4960941;28;102846;-49
2021/12/18 08:39:12;;;;;;;18.03;16.53;;;;;;;22.77;29.39;95603.34;4960181;28;102733;-49
2021/12/18 08:41:39;;;;;;;19.33;17.13;;;;;;;22.81;29.39;95608.88;4956436;28;104001;-49
2021/12/18 08:44:05;;;;;;;19.53;17.47;;;;;;;22.78;29.60;95604.91;4951165;28;103178;-49
2021/12/18 08:46:30;;;;;;;20.20;18.40;;;;;;;22.86;29.40;95611.50;4949921;28;102765;-49
2021/12/18 08:48:56;;;;;;;20.97;19.07;;;;;;;22.84;29.55;95602.19;4958924;28;102627;-49
2021/12/18 08:51:21;;;;;;;24.20;21.97;;;;;;;22.86;30.57;95606.19;4977624;28;103161;-49
2021/12/18 08:53:47;;;;;;;20.53;18.53;;;;;;;22.87;29.89;95605.09;4975482;28;102758;-49
2021/12/18 08:56:12;;;;;;;22.60;20.40;;;;;;;22.86;30.44;95594.75;4957345;28;102756;-49
2021/12/18 08:58:38;;;;;;;22.00;19.80;;;;;;;22.92;30.43;95601.56;4941368;28;102935;-49
2021/12/18 09:01:04;;;;;;;22.30;20.27;;;;;;;22.93;30.08;95603.94;4942333;28;103873;-49
2021/12/18 09:03:30;;;;;;;23.43;19.93;;;;;;;22.93;30.17;95595.16;4935751;28;102746;-49
2021/12/18 09:05:56;;;;;;;21.87;19.97;;;;;;;22.93;30.21;95606.59;4941171;28;102827;-49
2021/12/18 09:08:22;;;;;;;22.10;20.20;;;;;;;22.96;30.25;95599.88;4941708;28;103104;-49
2021/12/18 09:10:49;;;;;;;21.30;19.50;;;;;;;22.97;30.61;95591.59;4941512;28;102827;-48
2021/12/18 09:13:14;;;;;;;22.13;20.23;;;;;;;22.99;30.35;95594.75;4941201;28;102764;-48
2021/12/18 09:15:40;;;;;;;20.80;19.00;;;;;;;23.00;30.40;95584.91;4937743;28;103961;-48
2021/12/18 09:18:05;;;;;;;22.33;20.23;;;;;;;23.19;30.30;95592.88;4941872;28;103145;-47
2021/12/18 09:20:31;;;;;;;23.87;21.47;;;;;;;23.29;30.27;95585.47;4941268;28;103692;-47
2021/12/18 09:23:00;;;;;;;23.20;21.20;;;;;;;23.31;30.29;95582.50;4942018;28;103123;-47
2021/12/18 09:25:25;;;;;;;26.60;24.30;;;;;;;23.31;30.47;95585.19;4937137;28;104539;-47
2021/12/18 09:27:51;;;;;;;24.97;22.87;;;;;;;23.30;30.34;95586.25;4940439;28;103284;-47
2021/12/18 09:30:16;;;;;;;23.87;21.77;;;;;;;23.32;31.20;95589.41;4941989;28;103387;-47
2021/12/18 09:32:43;;;;;;;21.13;19.40;;;;;;;23.32;30.35;95592.88;4942178;28;103412;-47
2021/12/18 09:35:11;;;;;;;22.70;20.70;;;;;;;23.28;30.51;95588.44;4941404;28;102700;-48
2021/12/18 09:37:37;;;;;;;22.10;20.20;;;;;;;23.21;30.50;95590.69;4935266;28;103484;-48
2021/12/18 09:40:07;;;;;;;20.67;18.90;;;;;;;23.18;30.42;95584.09;4923029;28;103722;-48
2021/12/18 09:42:33;;;;;;;21.63;19.83;;;;;;;23.17;30.61;95585.13;4939772;28;102881;-48
2021/12/18 09:44:59;;;;;;;21.87;19.97;;;;;;;23.13;30.53;95586.81;4941168;28;102809;-48
2021/12/18 09:47:24;;;;;;;20.33;18.63;;;;;;;23.13;30.45;95594.03;4935136;28;103329;-48
2021/12/18 09:49:50;;;;;;;19.50;17.70;;;;;;;23.05;30.93;95587.50;4951811;28;102776;-48
2021/12/18 09:52:16;;;;;;;18.03;16.50;;;;;;;22.99;30.68;95581.44;4978756;28;102635;-48
2021/12/18 09:54:42;;;;;;;18.77;17.17;;;;;;;22.95;30.91;95575.13;4979787;28;102834;-48
2021/12/18 09:57:08;;;;;;;16.57;15.27;;;;;;;22.99;30.67;95575.31;4979313;28;102877;-48
2021/12/18 09:59:36;;;;;;;17.90;16.30;;;;;;;22.95;30.98;95577.78;4974013;28;102898;-48
2021/12/18 10:02:02;;;;;;;16.13;14.73;;;;;;;22.96;30.82;95574.03;4978539;28;102975;-48
2021/12/18 10:04:30;;;;;;;15.97;14.43;;;;;;;22.96;30.52;95573.25;4978329;28;102832;-48
2021/12/18 10:06:58;;;;;;;14.80;13.30;;;;;;;22.94;30.63;95575.41;4979290;28;102893;-48
2021/12/18 10:09:24;;;;;;;15.33;13.10;;;;;;;22.96;30.81;95570.56;4974818;28;104885;-48
2021/12/18 10:11:59;;;;;;;14.50;13.03;;;;;;;23.00;30.84;95569.69;4979019;28;102697;-48
2021/12/18 10:14:32;;;;;;;14.07;12.87;;;;;;;23.00;30.62;95563.56;4961782;28;102781;-48
2021/12/18 10:16:58;;;;;;;13.73;12.53;;;;;;;23.04;30.74;95564.59;4978792;28;102697;-48
2021/12/18 10:19:27;;;;;;;14.00;12.90;;;;;;;22.99;30.76;95562.78;4978964;28;102700;-48
2021/12/18 10:22:02;;;;;;;13.20;12.10;;;;;;;22.96;30.56;95562.59;4973662;28;102921;-48
2021/12/18 10:24:28;;;;;;;19.53;17.60;;;;;;;23.01;31.01;95576.63;4979973;28;103324;-48
2021/12/18 10:26:54;;;;;;;19.47;17.57;;;;;;;23.09;30.71;95573.28;4978909;28;103761;-48
2021/12/18 10:29:24;;;;;;;24.00;22.10;;;;;;;23.13;30.86;95575.34;4979103;28;103570;-49
2021/12/18 10:31:50;;;;;;;21.60;19.73;;;;;;;23.11;30.39;95575.66;4951640;28;102744;-49
2021/12/18 10:34:20;;;;;;;24.40;22.30;;;;;;;23.06;30.38;95573.88;4957518;28;102873;-49
2021/12/18 10:37:18;;;;;;;23.50;21.60;;;;;;;23.04;30.22;95570.72;4958205;28;103401;-49
2021/12/18 10:39:50;;;;;;;20.93;19.03;;;;;;;23.07;30.48;95574.66;4958856;28;102716;-49
2021/12/18 10:42:35;;;;;;;20.80;19.10;;;;;;;23.11;30.50;95559.66;4956898;28;102793;-49
2021/12/18 10:45:06;;;;;;;22.80;20.90;;;;;;;23.13;30.70;95557.50;4958850;28;102849;-49
2021/12/18 10:47:48;;;;;;;23.57;21.57;;;;;;;23.08;30.41;95558.38;4958338;28;103762;-49
2021/12/18 10:50:35;;;;;;;21.37;19.57;;;;;;;23.10;30.57;95552.75;4967733;28;103264;-47
2021/12/18 10:53:06;;;;;;;19.93;18.33;;;;;;;23.28;30.26;95543.09;4958173;28;103884;-48
2021/12/18 10:55:39;;;;;;;19.27;17.47;;;;;;;23.43;30.64;95542.84;4931940;28;103434;-48
2021/12/18 10:58:10;;;;;;;19.40;17.90;;;;;;;23.49;30.07;95541.63;4937572;28;102996;-48
2021/12/18 11:00:39;;;;;;;17.20;15.87;;;;;;;23.54;29.88;95544.22;4939412;28;102791;-48
2021/12/18 11:03:29;;;;;;;17.10;15.63;;;;;;;23.57;29.82;95541.00;4941671;28;102769;-48
2021/12/18 11:06:15;;;;;;;17.50;16.10;;;;;;;23.57;30.25;95538.31;4940035;28;103090;-48
2021/12/18 11:09:10;;;;;;;17.13;15.73;;;;;;;23.57;30.24;95545.53;4938802;28;102780;-48
2021/12/18 11:14:38;;;;;;;16.80;15.50;;;;;;;23.58;30.35;95537.25;4948110;28;102919;-48
2021/12/18 11:17:07;;;;;;;16.00;14.60;;;;;;;23.58;29.86;95539.91;4946069;28;102939;-48
2021/12/18 11:19:35;;;;;;;15.93;14.53;;;;;;;23.59;30.20;95543.38;4939082;28;103194;-48
2021/12/18 11:22:05;;;;;;;15.97;14.60;;;;;;;23.58;30.46;95544.44;4920766;28;103694;-48
2021/12/18 11:24:37;;;;;;;15.83;14.60;;;;;;;23.58;29.76;95539.91;4938649;28;102986;-47
2021/12/18 11:27:09;;;;;;;15.17;13.87;;;;;;;23.53;30.15;95531.97;4934161;28;102782;-47
2021/12/18 11:29:40;;;;;;;14.53;13.40;;;;;;;23.55;30.20;95537.03;4938792;28;102663;-48
2021/12/18 11:32:10;;;;;;;14.20;13.10;;;;;;;23.54;30.30;95540.78;4938033;28;102860;-49
2021/12/18 11:34:38;;;;;;;15.10;13.70;;;;;;;23.52;30.26;95533.06;4936787;28;102633;-48
2021/12/18 11:37:06;;;;;;;15.03;13.83;;;;;;;23.54;30.06;95538.91;4939168;28;103244;-47
2021/12/18 11:39:34;;;;;;;14.07;12.87;;;;;;;23.61;29.86;95541.19;4934039;28;104013;-47
2021/12/18 11:41:59;;;;;;;15.10;13.63;;;;;;;23.56;30.11;95539.38;4938807;28;103453;-48
2021/12/18 11:44:34;;;;;;;13.97;12.87;;;;;;;23.59;30.31;95546.81;4939960;28;102804;-48
2021/12/18 11:47:24;;;;;;;14.73;13.43;;;;;;;23.60;30.06;95544.94;4941656;28;103246;-48
2021/12/18 11:49:51;;;;;;;13.77;12.57;;;;;;;23.59;29.89;95536.16;4929879;28;103431;-48
2021/12/18 11:52:17;;;;;;;13.53;12.53;;;;;;;23.57;29.92;95542.88;4961813;28;103433;-48
2021/12/18 11:54:54;;;;;;;13.20;12.20;;;;;;;23.58;29.98;95534.56;4961995;28;102835;-48
2021/12/18 11:57:42;;;;;;;12.43;11.33;;;;;;;23.58;30.37;95537.25;4961672;28;102045;-48
2021/12/18 12:00:36;;;;;;;12.83;11.73;;;;;;;23.58;30.29;95537.25;4955404;28;102829;-47
2021/12/18 12:03:03;;;;;;;12.50;11.50;;;;;;;23.60;30.54;95532.41;4961296;28;103419;-48